sensor_id;sensor_type;location;lat;lon;timestamp;pressure;altitude;pressure_sealevel;temperature;humidity
20630;BME280;17386;43.846;25.950;2023-01-29T00:02:25;101653.72;;;2.62;100.00
20630;BME280;17386;43.846;25.950;2023-01-29T00:04:51;101656.34;;;2.62;100.00
20630;BME280;17386;43.846;25.950;2023-01-29T00:07:18;101650.22;;;2.63;100.00
20630;BME280;17386;43.846;25.950;2023-01-29T00:09:43;101658.97;;;2.65;100.00
20630;BME280;17386;43.846;25.950;2023-01-29T00:12:09;101664.28;;;2.70;100.00
20630;BME280;17386;43.846;25.950;2023-01-29T00:14:34;101665.16;;;2.70;100.00
20630;BME280;17386;43.846;25.950;2023-01-29T00:17:00;101670.41;;;2.70;100.00
20630;BME280;17386;43.846;25.950;2023-01-29T00:19:25;101674.81;;;2.71;100.00
20630;BME280;17386;43.846;25.950;2023-01-29T00:21:52;101677.44;;;2.73;100.00
20630;BME280;17386;43.846;25.950;2023-01-29T00:24:17;101674.84;;;2.74;100.00
20630;BME280;17386;43.846;25.950;2023-01-29T00:26:43;101679.19;;;2.74;100.00
20630;BME280;17386;43.846;25.950;2023-01-29T00:29:08;101658.97;;;2.64;100.00
20630;BME280;17386;43.846;25.950;2023-01-29T00:31:34;101680.03;;;2.71;100.00
20630;BME280;17386;43.846;25.950;2023-01-29T00:34:00;101684.44;;;2.72;100.00
20630;BME280;17386;43.846;25.950;2023-01-29T00:36:26;101689.69;;;2.74;100.00
20630;BME280;17386;43.846;25.950;2023-01-29T00:38:57;101687.13;;;2.77;100.00
20630;BME280;17386;43.846;25.950;2023-01-29T00:41:30;101698.50;;;2.81;100.00
20630;BME280;17386;43.846;25.950;2023-01-29T00:44:15;101699.38;;;2.81;100.00
20630;BME280;17386;43.846;25.950;2023-01-29T00:46:59;101698.56;;;2.82;100.00
20630;BME280;17386;43.846;25.950;2023-01-29T00:49:24;101687.13;;;2.80;100.00
20630;BME280;17386;43.846;25.950;2023-01-29T00:51:50;101688.00;;;2.81;100.00
20630;BME280;17386;43.846;25.950;2023-01-29T00:54:35;101700.31;;;2.83;100.00
20630;BME280;17386;43.846;25.950;2023-01-29T00:57:01;101696.75;;;2.81;100.00
20630;BME280;17386;43.846;25.950;2023-01-29T00:59:27;101694.13;;;2.81;100.00
20630;BME280;17386;43.846;25.950;2023-01-29T01:01:54;101695.88;;;2.79;100.00
20630;BME280;17386;43.846;25.950;2023-01-29T01:04:38;101701.09;;;2.76;100.00
20630;BME280;17386;43.846;25.950;2023-01-29T01:07:04;101702.00;;;2.80;100.00
20630;BME280;17386;43.846;25.950;2023-01-29T01:09:30;101697.63;;;2.80;100.00
20630;BME280;17386;43.846;25.950;2023-01-29T01:12:14;101703.75;;;2.81;100.00
20630;BME280;17386;43.846;25.950;2023-01-29T01:14:39;101705.50;;;2.80;100.00
20630;BME280;17386;43.846;25.950;2023-01-29T01:17:07;101713.38;;;2.80;100.00
20630;BME280;17386;43.846;25.950;2023-01-29T01:19:34;101709.06;;;2.82;100.00
20630;BME280;17386;43.846;25.950;2023-01-29T01:21:59;101705.56;;;2.85;100.00
20630;BME280;17386;43.846;25.950;2023-01-29T01:24:25;101706.44;;;2.82;100.00
20630;BME280;17386;43.846;25.950;2023-01-29T01:26:50;101702.06;;;2.83;100.00
20630;BME280;17386;43.846;25.950;2023-01-29T01:29:17;101702.94;;;2.83;100.00
20630;BME280;17386;43.846;25.950;2023-01-29T01:31:44;101708.16;;;2.82;100.00
20630;BME280;17386;43.846;25.950;2023-01-29T01:34:11;101698.50;;;2.81;100.00
20630;BME280;17386;43.846;25.950;2023-01-29T01:36:39;101700.25;;;2.77;100.00
20630;BME280;17386;43.846;25.950;2023-01-29T01:39:05;101708.06;;;2.74;100.00
20630;BME280;17386;43.846;25.950;2023-01-29T01:41:32;101688.72;;;2.64;100.00
20630;BME280;17386;43.846;25.950;2023-01-29T01:44:00;101701.94;;;2.73;100.00
20630;BME280;17386;43.846;25.950;2023-01-29T01:46:32;101700.16;;;2.69;100.00
20630;BME280;17386;43.846;25.950;2023-01-29T01:49:07;101697.47;;;2.65;100.00
20630;BME280;17386;43.846;25.950;2023-01-29T01:51:39;101698.31;;;2.64;100.00
20630;BME280;17386;43.846;25.950;2023-01-29T01:54:13;101703.56;;;2.64;100.00
20630;BME280;17386;43.846;25.950;2023-01-29T01:56:44;101700.09;;;2.66;100.00
20630;BME280;17386;43.846;25.950;2023-01-29T01:59:14;101705.38;;;2.68;100.00
20630;BME280;17386;43.846;25.950;2023-01-29T02:01:46;101715.03;;;2.70;100.00
20630;BME280;17386;43.846;25.950;2023-01-29T02:04:18;101707.16;;;2.70;100.00
20630;BME280;17386;43.846;25.950;2023-01-29T02:07:07;101695.72;;;2.64;100.00
20630;BME280;17386;43.846;25.950;2023-01-29T02:10:00;101702.59;;;2.56;100.00
20630;BME280;17386;43.846;25.950;2023-01-29T02:12:31;101706.19;;;2.62;100.00
20630;BME280;17386;43.846;25.950;2023-01-29T02:14:57;101694.78;;;2.60;100.00
20630;BME280;17386;43.846;25.950;2023-01-29T02:17:23;101706.19;;;2.61;100.00
20630;BME280;17386;43.846;25.950;2023-01-29T02:19:52;101705.31;;;2.62;100.00
20630;BME280;17386;43.846;25.950;2023-01-29T02:28:48;101706.13;;;2.59;100.00
20630;BME280;17386;43.846;25.950;2023-01-29T02:31:39;101710.50;;;2.60;100.00
20630;BME280;17386;43.846;25.950;2023-01-29T02:37:17;101709.63;;;2.60;100.00
20630;BME280;17386;43.846;25.950;2023-01-29T02:42:16;101716.69;;;2.64;100.00
20630;BME280;17386;43.846;25.950;2023-01-29T02:50:05;101715.81;;;2.63;100.00
20630;BME280;17386;43.846;25.950;2023-01-29T02:57:42;101724.56;;;2.64;100.00
20630;BME280;17386;43.846;25.950;2023-01-29T03:00:10;101731.47;;;2.57;100.00
20630;BME280;17386;43.846;25.950;2023-01-29T03:05:30;101729.81;;;2.62;100.00
20630;BME280;17386;43.846;25.950;2023-01-29T03:08:02;101732.44;;;2.65;100.00
20630;BME280;17386;43.846;25.950;2023-01-29T03:10:39;101725.44;;;2.63;100.00
20630;BME280;17386;43.846;25.950;2023-01-29T03:14:13;101728.84;;;2.59;100.00
20630;BME280;17386;43.846;25.950;2023-01-29T03:16:16;101732.41;;;2.61;100.00
20630;BME280;17386;43.846;25.950;2023-01-29T03:18:51;101733.31;;;2.66;100.00
20630;BME280;17386;43.846;25.950;2023-01-29T03:21:28;101734.19;;;2.65;100.00
20630;BME280;17386;43.846;25.950;2023-01-29T03:24:17;101732.47;;;2.67;100.00
20630;BME280;17386;43.846;25.950;2023-01-29T03:27:07;101735.91;;;2.61;100.00
20630;BME280;17386;43.846;25.950;2023-01-29T03:29:54;101736.78;;;2.62;100.00
20630;BME280;17386;43.846;25.950;2023-01-29T03:32:40;101737.66;;;2.61;100.00
20630;BME280;17386;43.846;25.950;2023-01-29T03:35:09;101739.38;;;2.60;100.00
20630;BME280;17386;43.846;25.950;2023-01-29T03:37:40;101744.66;;;2.62;100.00
20630;BME280;17386;43.846;25.950;2023-01-29T03:40:08;101742.03;;;2.62;100.00
20630;BME280;17386;43.846;25.950;2023-01-29T03:48:30;101747.28;;;2.62;100.00
20630;BME280;17386;43.846;25.950;2023-01-29T03:51:10;101748.97;;;2.58;100.00
20630;BME280;17386;43.846;25.950;2023-01-29T03:53:50;101747.22;;;2.59;100.00
20630;BME280;17386;43.846;25.950;2023-01-29T03:56:44;101749.84;;;2.60;100.00
20630;BME280;17386;43.846;25.950;2023-01-29T03:59:20;101750.78;;;2.62;100.00
20630;BME280;17386;43.846;25.950;2023-01-29T04:01:51;101744.66;;;2.62;100.00
20630;BME280;17386;43.846;25.950;2023-01-29T04:04:32;101745.56;;;2.67;100.00
20630;BME280;17386;43.846;25.950;2023-01-29T04:07:14;101742.94;;;2.64;100.00
20630;BME280;17386;43.846;25.950;2023-01-29T04:09:48;101744.56;;;2.56;100.00
20630;BME280;17386;43.846;25.950;2023-01-29T04:12:19;101743.66;;;2.54;100.00
20630;BME280;17386;43.846;25.950;2023-01-29T04:14:51;101748.97;;;2.58;100.00
20630;BME280;17386;43.846;25.950;2023-01-29T04:17:23;101755.09;;;2.59;100.00
20630;BME280;17386;43.846;25.950;2023-01-29T04:19:49;101756.84;;;2.58;100.00
20630;BME280;17386;43.846;25.950;2023-01-29T04:22:29;101761.28;;;2.61;100.00
20630;BME280;17386;43.846;25.950;2023-01-29T04:24:59;101759.53;;;2.63;100.00
20630;BME280;17386;43.846;25.950;2023-01-29T04:30:25;101761.28;;;2.64;100.00
20630;BME280;17386;43.846;25.950;2023-01-29T04:38:00;101766.53;;;2.64;100.00
20630;BME280;17386;43.846;25.950;2023-01-29T04:43:43;101769.19;;;2.67;100.00
20630;BME280;17386;43.846;25.950;2023-01-29T04:46:11;101762.09;;;2.60;100.00
20630;BME280;17386;43.846;25.950;2023-01-29T04:48:50;101763.91;;;2.64;100.00
20630;BME280;17386;43.846;25.950;2023-01-29T04:57:23;101774.41;;;2.65;100.00
20630;BME280;17386;43.846;25.950;2023-01-29T05:00:04;101777.03;;;2.65;100.00
20630;BME280;17386;43.846;25.950;2023-01-29T05:02:36;101777.94;;;2.66;100.00
20630;BME280;17386;43.846;25.950;2023-01-29T05:05:03;101776.13;;;2.62;100.00
20630;BME280;17386;43.846;25.950;2023-01-29T05:07:30;101784.06;;;2.66;100.00
20630;BME280;17386;43.846;25.950;2023-01-29T05:09:57;101791.03;;;2.64;100.00
20630;BME280;17386;43.846;25.950;2023-01-29T05:12:25;101791.91;;;2.65;100.00
20630;BME280;17386;43.846;25.950;2023-01-29T05:15:01;101798.94;;;2.67;100.00
20630;BME280;17386;43.846;25.950;2023-01-29T05:17:27;101800.66;;;2.67;100.00
20630;BME280;17386;43.846;25.950;2023-01-29T05:19:54;101804.16;;;2.66;100.00
20630;BME280;17386;43.846;25.950;2023-01-29T05:22:21;101804.25;;;2.72;100.00
20630;BME280;17386;43.846;25.950;2023-01-29T05:24:50;101801.59;;;2.70;100.00
20630;BME280;17386;43.846;25.950;2023-01-29T05:27:28;101813.00;;;2.72;100.00
20630;BME280;17386;43.846;25.950;2023-01-29T05:30:15;101809.50;;;2.72;100.00
20630;BME280;17386;43.846;25.950;2023-01-29T05:32:40;101817.44;;;2.77;100.00
20630;BME280;17386;43.846;25.950;2023-01-29T05:35:06;101812.19;;;2.77;100.00
20630;BME280;17386;43.846;25.950;2023-01-29T05:37:31;101808.72;;;2.78;100.00
20630;BME280;17386;43.846;25.950;2023-01-29T05:39:57;101820.06;;;2.75;100.00
20630;BME280;17386;43.846;25.950;2023-01-29T05:42:22;101822.69;;;2.77;100.00
20630;BME280;17386;43.846;25.950;2023-01-29T05:44:48;101826.19;;;2.76;100.00
20630;BME280;17386;43.846;25.950;2023-01-29T05:47:17;101827.94;;;2.75;100.00
20630;BME280;17386;43.846;25.950;2023-01-29T05:49:43;101830.50;;;2.72;100.00
20630;BME280;17386;43.846;25.950;2023-01-29T05:52:08;101830.50;;;2.72;100.00
20630;BME280;17386;43.846;25.950;2023-01-29T05:54:34;101828.72;;;2.71;100.00
20630;BME280;17386;43.846;25.950;2023-01-29T05:56:59;101842.72;;;2.70;100.00
20630;BME280;17386;43.846;25.950;2023-01-29T05:59:24;101844.44;;;2.68;100.00
20630;BME280;17386;43.846;25.950;2023-01-29T06:01:50;101847.09;;;2.69;100.00
20630;BME280;17386;43.846;25.950;2023-01-29T06:04:15;101852.34;;;2.71;100.00
20630;BME280;17386;43.846;25.950;2023-01-29T06:06:41;101850.66;;;2.74;100.00
20630;BME280;17386;43.846;25.950;2023-01-29T06:09:06;101848.88;;;2.73;100.00
20630;BME280;17386;43.846;25.950;2023-01-29T06:11:31;101855.13;;;2.82;100.00
20630;BME280;17386;43.846;25.950;2023-01-29T06:13:57;101863.06;;;2.88;100.00
20630;BME280;17386;43.846;25.950;2023-01-29T06:16:22;101874.53;;;2.93;100.00
20630;BME280;17386;43.846;25.950;2023-01-29T06:18:47;101866.63;;;2.93;100.00
20630;BME280;17386;43.846;25.950;2023-01-29T06:21:13;101870.22;;;2.96;100.00
20630;BME280;17386;43.846;25.950;2023-01-29T06:23:38;101873.81;;;3.05;100.00
20630;BME280;17386;43.846;25.950;2023-01-29T06:26:10;101881.72;;;3.08;100.00
20630;BME280;17386;43.846;25.950;2023-01-29T06:28:36;101879.13;;;3.09;100.00
20630;BME280;17386;43.846;25.950;2023-01-29T06:31:03;101874.78;;;3.11;100.00
20630;BME280;17386;43.846;25.950;2023-01-29T06:33:30;101880.91;;;3.13;100.00
20630;BME280;17386;43.846;25.950;2023-01-29T06:36:00;101882.72;;;3.16;100.00
20630;BME280;17386;43.846;25.950;2023-01-29T06:38:25;101884.41;;;3.14;100.00
20630;BME280;17386;43.846;25.950;2023-01-29T06:40:52;101888.84;;;3.16;100.00
20630;BME280;17386;43.846;25.950;2023-01-29T06:43:18;101896.78;;;3.22;100.00
20630;BME280;17386;43.846;25.950;2023-01-29T06:45:48;101895.94;;;3.23;100.00
20630;BME280;17386;43.846;25.950;2023-01-29T06:48:13;101895.94;;;3.23;100.00
20630;BME280;17386;43.846;25.950;2023-01-29T06:50:39;101893.31;;;3.23;100.00
20630;BME280;17386;43.846;25.950;2023-01-29T06:53:04;101893.34;;;3.25;100.00
20630;BME280;17386;43.846;25.950;2023-01-29T06:55:30;101890.69;;;3.25;100.00
20630;BME280;17386;43.846;25.950;2023-01-29T06:57:55;101889.03;;;3.32;100.00
20630;BME280;17386;43.846;25.950;2023-01-29T07:00:21;101889.66;;;3.11;100.00
20630;BME280;17386;43.846;25.950;2023-01-29T07:02:49;101898.38;;;3.10;100.00
20630;BME280;17386;43.846;25.950;2023-01-29T07:05:14;101887.22;;;3.26;100.00
20630;BME280;17386;43.846;25.950;2023-01-29T07:07:40;101892.47;;;3.27;100.00
20630;BME280;17386;43.846;25.950;2023-01-29T07:10:05;101902.97;;;3.26;100.00
20630;BME280;17386;43.846;25.950;2023-01-29T07:12:31;101898.47;;;3.16;100.00
20630;BME280;17386;43.846;25.950;2023-01-29T07:14:57;101906.47;;;3.25;100.00
20630;BME280;17386;43.846;25.950;2023-01-29T07:17:22;101906.34;;;3.16;100.00
20630;BME280;17386;43.846;25.950;2023-01-29T07:19:48;101910.81;;;3.23;100.00
20630;BME280;17386;43.846;25.950;2023-01-29T07:22:13;101918.81;;;3.32;100.00
20630;BME280;17386;43.846;25.950;2023-01-29T07:24:40;101922.50;;;3.46;100.00
20630;BME280;17386;43.846;25.950;2023-01-29T07:27:05;101926.16;;;3.58;100.00
20630;BME280;17386;43.846;25.950;2023-01-29T07:29:31;101924.47;;;3.66;100.00
20630;BME280;17386;43.846;25.950;2023-01-29T07:31:56;101930.75;;;3.78;100.00
20630;BME280;17386;43.846;25.950;2023-01-29T07:34:22;101930.00;;;3.90;100.00
20630;BME280;17386;43.846;25.950;2023-01-29T07:36:47;101908.06;;;3.87;100.00
20630;BME280;17386;43.846;25.950;2023-01-29T07:39:13;101931.88;;;4.02;100.00
20630;BME280;17386;43.846;25.950;2023-01-29T07:41:38;101934.56;;;4.08;100.00
20630;BME280;17386;43.846;25.950;2023-01-29T07:44:03;101931.16;;;4.17;100.00
20630;BME280;17386;43.846;25.950;2023-01-29T07:46:29;101929.38;;;4.17;100.00
20630;BME280;17386;43.846;25.950;2023-01-29T07:48:54;101929.44;;;4.22;100.00
20630;BME280;17386;43.846;25.950;2023-01-29T07:51:20;101939.97;;;4.23;100.00
20630;BME280;17386;43.846;25.950;2023-01-29T07:53:45;101935.66;;;4.28;100.00
20630;BME280;17386;43.846;25.950;2023-01-29T07:56:11;101938.28;;;4.28;100.00
20630;BME280;17386;43.846;25.950;2023-01-29T07:58:36;101919.88;;;4.30;100.00
20630;BME280;17386;43.846;25.950;2023-01-29T08:01:06;101932.31;;;4.46;100.00
20630;BME280;17386;43.846;25.950;2023-01-29T08:03:32;101928.00;;;4.56;100.00
20630;BME280;17386;43.846;25.950;2023-01-29T08:05:57;101933.13;;;4.41;100.00
20630;BME280;17386;43.846;25.950;2023-01-29T08:08:22;101940.09;;;4.37;100.00
20630;BME280;17386;43.846;25.950;2023-01-29T08:10:48;101943.78;;;4.54;100.00
20630;BME280;17386;43.846;25.950;2023-01-29T08:13:13;101948.22;;;4.61;100.00
20630;BME280;17386;43.846;25.950;2023-01-29T08:15:42;101948.22;;;4.61;100.00
20630;BME280;17386;43.846;25.950;2023-01-29T08:18:08;101954.41;;;4.68;100.00
20630;BME280;17386;43.846;25.950;2023-01-29T08:20:34;101955.25;;;4.64;100.00
20630;BME280;17386;43.846;25.950;2023-01-29T08:23:01;101956.13;;;4.66;100.00
20630;BME280;17386;43.846;25.950;2023-01-29T08:25:27;101947.34;;;4.65;100.00
20630;BME280;17386;43.846;25.950;2023-01-29T08:27:55;101957.91;;;4.67;100.00
20630;BME280;17386;43.846;25.950;2023-01-29T08:30:21;101960.59;;;4.75;100.00
20630;BME280;17386;43.846;25.950;2023-01-29T08:32:46;101955.19;;;4.56;100.00
20630;BME280;17386;43.846;25.950;2023-01-29T08:35:14;101961.31;;;4.55;100.00
20630;BME280;17386;43.846;25.950;2023-01-29T08:37:40;101961.47;;;4.74;100.00
20630;BME280;17386;43.846;25.950;2023-01-29T08:40:06;101956.28;;;4.84;100.00
20630;BME280;17386;43.846;25.950;2023-01-29T08:42:33;101957.19;;;4.88;100.00
20630;BME280;17386;43.846;25.950;2023-01-29T08:44:59;101960.72;;;4.91;100.00
20630;BME280;17386;43.846;25.950;2023-01-29T08:47:24;101966.03;;;4.96;100.00
20630;BME280;17386;43.846;25.950;2023-01-29T08:49:49;101969.63;;;5.10;100.00
20630;BME280;17386;43.846;25.950;2023-01-29T08:52:15;101986.19;;;4.91;100.00
20630;BME280;17386;43.846;25.950;2023-01-29T08:54:40;101987.59;;;4.52;100.00
20630;BME280;17386;43.846;25.950;2023-01-29T08:57:05;101991.69;;;4.21;100.00
20630;BME280;17386;43.846;25.950;2023-01-29T08:59:31;101994.47;;;4.38;100.00
20630;BME280;17386;43.846;25.950;2023-01-29T09:01:56;101997.75;;;4.13;100.00
20630;BME280;17386;43.846;25.950;2023-01-29T09:04:22;101995.19;;;4.20;100.00
20630;BME280;17386;43.846;25.950;2023-01-29T09:06:47;101991.69;;;4.21;100.00
20630;BME280;17386;43.846;25.950;2023-01-29T09:09:13;101995.94;;;4.10;100.00
20630;BME280;17386;43.846;25.950;2023-01-29T09:11:38;101989.66;;;3.97;100.00
20630;BME280;17386;43.846;25.950;2023-01-29T09:14:04;101992.19;;;3.85;100.00
20630;BME280;17386;43.846;25.950;2023-01-29T09:16:30;101985.19;;;3.90;100.00
20630;BME280;17386;43.846;25.950;2023-01-29T09:18:55;101980.66;;;3.77;100.00
20630;BME280;17386;43.846;25.950;2023-01-29T09:21:21;101980.81;;;3.88;100.00
20630;BME280;17386;43.846;25.950;2023-01-29T09:23:46;101980.94;;;3.98;100.00
20630;BME280;17386;43.846;25.950;2023-01-29T09:26:12;101975.72;;;4.04;100.00
20630;BME280;17386;43.846;25.950;2023-01-29T09:28:37;101964.44;;;4.13;100.00
20630;BME280;17386;43.846;25.950;2023-01-29T09:31:03;101963.56;;;4.13;100.00
20630;BME280;17386;43.846;25.950;2023-01-29T09:33:28;101963.63;;;4.19;100.00
20630;BME280;17386;43.846;25.950;2023-01-29T09:35:55;101962.78;;;4.24;100.00
20630;BME280;17386;43.846;25.950;2023-01-29T09:38:20;101955.00;;;4.35;100.00
20630;BME280;17386;43.846;25.950;2023-01-29T09:41:01;101952.16;;;4.14;100.00
20630;BME280;17386;43.846;25.950;2023-01-29T09:43:48;101951.47;;;3.54;100.00
20630;BME280;17386;43.846;25.950;2023-01-29T09:48:45;101942.13;;;3.77;100.00
20630;BME280;17386;43.846;25.950;2023-01-29T09:51:42;101950.78;;;3.67;100.00
20630;BME280;17386;43.846;25.950;2023-01-29T09:54:17;101937.59;;;3.64;100.00
20630;BME280;17386;43.846;25.950;2023-01-29T09:56:47;101943.91;;;3.80;100.00
20630;BME280;17386;43.846;25.950;2023-01-29T09:59:16;101941.91;;;3.58;100.00
20630;BME280;17386;43.846;25.950;2023-01-29T10:02:08;101935.16;;;3.79;100.00
20630;BME280;17386;43.846;25.950;2023-01-29T10:04:57;101936.19;;;3.97;100.00
20630;BME280;17386;43.846;25.950;2023-01-29T10:21:35;101922.28;;;4.07;100.00
20630;BME280;17386;43.846;25.950;2023-01-29T10:26:35;101913.09;;;4.59;100.00
20630;BME280;17386;43.846;25.950;2023-01-29T10:29:09;101915.59;;;4.46;100.00
20630;BME280;17386;43.846;25.950;2023-01-29T10:31:39;101918.66;;;3.96;100.00
20630;BME280;17386;43.846;25.950;2023-01-29T10:36:47;101915.06;;;3.86;100.00
20630;BME280;17386;43.846;25.950;2023-01-29T10:47:06;101913.03;;;3.64;100.00
20630;BME280;17386;43.846;25.950;2023-01-29T10:56:11;101895.47;;;4.49;100.00
20630;BME280;17386;43.846;25.950;2023-01-29T10:58:50;101903.25;;;4.34;100.00
20630;BME280;17386;43.846;25.950;2023-01-29T11:01:16;101887.34;;;4.20;100.00
20630;BME280;17386;43.846;25.950;2023-01-29T11:03:41;101894.25;;;4.06;100.00
20630;BME280;17386;43.846;25.950;2023-01-29T11:11:15;101883.97;;;4.35;100.00
20630;BME280;17386;43.846;25.950;2023-01-29T11:13:57;101890.94;;;4.30;100.00
20630;BME280;17386;43.846;25.950;2023-01-29T11:16:26;101881.72;;;3.82;100.00
20630;BME280;17386;43.846;25.950;2023-01-29T11:18:59;101894.84;;;3.82;100.00
20630;BME280;17386;43.846;25.950;2023-01-29T11:21:27;101884.25;;;3.71;100.00
20630;BME280;17386;43.846;25.950;2023-01-29T11:24:13;101887.69;;;3.66;100.00
20630;BME280;17386;43.846;25.950;2023-01-29T11:26:45;101877.97;;;3.57;100.00
20630;BME280;17386;43.846;25.950;2023-01-29T11:32:10;101883.16;;;3.51;100.00
20630;BME280;17386;43.846;25.950;2023-01-29T11:35:02;101875.34;;;3.59;100.00
20630;BME280;17386;43.846;25.950;2023-01-29T11:37:37;101883.16;;;3.54;100.00
20630;BME280;17386;43.846;25.950;2023-01-29T11:40:28;101879.56;;;3.44;100.00
20630;BME280;17386;43.846;25.950;2023-01-29T11:43:17;101884.84;;;3.49;100.00
20630;BME280;17386;43.846;25.950;2023-01-29T11:45:43;101876.16;;;3.53;100.00
20630;BME280;17386;43.846;25.950;2023-01-29T11:48:17;101873.66;;;3.65;100.00
20630;BME280;17386;43.846;25.950;2023-01-29T11:50:50;101865.13;;;3.84;100.00
20630;BME280;17386;43.846;25.950;2023-01-29T11:53:36;101878.41;;;4.04;100.00
20630;BME280;17386;43.846;25.950;2023-01-29T11:56:49;101875.78;;;4.00;100.00
20630;BME280;17386;43.846;25.950;2023-01-29T11:58:54;101870.44;;;3.92;100.00
20630;BME280;17386;43.846;25.950;2023-01-29T12:01:33;101861.81;;;4.08;100.00
20630;BME280;17386;43.846;25.950;2023-01-29T12:04:01;101855.34;;;3.73;100.00
20630;BME280;17386;43.846;25.950;2023-01-29T12:06:35;101844.16;;;3.92;100.00
20630;BME280;17386;43.846;25.950;2023-01-29T12:09:12;101845.16;;;4.09;100.00
20630;BME280;17386;43.846;25.950;2023-01-29T12:11:39;101842.69;;;4.26;100.00
20630;BME280;17386;43.846;25.950;2023-01-29T12:14:23;101832.28;;;4.42;100.00
20630;BME280;17386;43.846;25.950;2023-01-29T12:19:35;101848.84;;;4.28;100.00
20630;BME280;17386;43.846;25.950;2023-01-29T12:22:15;101841.00;;;4.39;100.00
20630;BME280;17386;43.846;25.950;2023-01-29T12:24:50;101850.75;;;4.48;100.00
20630;BME280;17386;43.846;25.950;2023-01-29T12:27:38;101854.25;;;4.53;100.00
20630;BME280;17386;43.846;25.950;2023-01-29T12:30:16;101860.25;;;4.32;100.00
20630;BME280;17386;43.846;25.950;2023-01-29T12:35:31;101854.19;;;4.42;100.00
20630;BME280;17386;43.846;25.950;2023-01-29T12:40:46;101861.75;;;4.02;100.00
20630;BME280;17386;43.846;25.950;2023-01-29T12:43:17;101861.06;;;4.20;100.00
20630;BME280;17386;43.846;25.950;2023-01-29T12:45:50;101857.59;;;4.29;100.00
20630;BME280;17386;43.846;25.950;2023-01-29T12:48:25;101862.03;;;4.34;100.00
20630;BME280;17386;43.846;25.950;2023-01-29T12:50:51;101865.56;;;4.38;100.00
20630;BME280;17386;43.846;25.950;2023-01-29T12:55:59;101868.06;;;4.24;100.00
20630;BME280;17386;43.846;25.950;2023-01-29T12:58:34;101869.84;;;4.25;100.00
20630;BME280;17386;43.846;25.950;2023-01-29T13:01:21;101867.22;;;4.25;100.00
20630;BME280;17386;43.846;25.950;2023-01-29T13:06:39;101870.75;;;4.27;100.00
20630;BME280;17386;43.846;25.950;2023-01-29T13:09:10;101873.38;;;4.27;100.00
20630;BME280;17386;43.846;25.950;2023-01-29T13:11:40;101876.00;;;4.26;100.00
20630;BME280;17386;43.846;25.950;2023-01-29T13:14:17;101871.50;;;4.14;100.00
20630;BME280;17386;43.846;25.950;2023-01-29T13:16:46;101877.59;;;4.08;100.00
20630;BME280;17386;43.846;25.950;2023-01-29T13:19:26;101878.34;;;3.95;100.00
20630;BME280;17386;43.846;25.950;2023-01-29T13:21:55;101886.00;;;3.72;100.00
20630;BME280;17386;43.846;25.950;2023-01-29T13:24:24;101878.78;;;3.51;100.00
20630;BME280;17386;43.846;25.950;2023-01-29T13:26:52;101876.19;;;3.56;100.00
20630;BME280;17386;43.846;25.950;2023-01-29T13:29:26;101881.56;;;3.68;100.00
20630;BME280;17386;43.846;25.950;2023-01-29T13:31:55;101875.50;;;3.74;100.00
20630;BME280;17386;43.846;25.950;2023-01-29T13:34:29;101872.06;;;3.81;100.00
20630;BME280;17386;43.846;25.950;2023-01-29T13:37:09;101872.06;;;3.79;100.00
20630;BME280;17386;43.846;25.950;2023-01-29T13:39:39;101874.69;;;3.81;100.00
20630;BME280;17386;43.846;25.950;2023-01-29T13:42:18;101872.06;;;3.81;100.00
20630;BME280;17386;43.846;25.950;2023-01-29T13:44:55;101876.44;;;3.80;100.00
20630;BME280;17386;43.846;25.950;2023-01-29T13:47:33;101878.22;;;3.81;100.00
20630;BME280;17386;43.846;25.950;2023-01-29T13:53:01;101874.78;;;3.87;100.00
20630;BME280;17386;43.846;25.950;2023-01-29T13:55:30;101872.13;;;3.87;100.00
20630;BME280;17386;43.846;25.950;2023-01-29T13:58:00;101880.00;;;3.86;100.00
20630;BME280;17386;43.846;25.950;2023-01-29T14:13:46;101876.59;;;3.93;100.00
20630;BME280;17386;43.846;25.950;2023-01-29T14:18:46;101878.34;;;3.95;100.00
20630;BME280;17386;43.846;25.950;2023-01-29T14:21:19;101875.75;;;3.98;100.00
20630;BME280;17386;43.846;25.950;2023-01-29T14:24:20;101871.41;;;4.02;100.00
20630;BME280;17386;43.846;25.950;2023-01-29T14:26:53;101877.53;;;4.02;100.00
20630;BME280;17386;43.846;25.950;2023-01-29T14:29:30;101879.97;;;3.81;100.00
20630;BME280;17386;43.846;25.950;2023-01-29T14:34:50;101872.00;;;3.75;100.00
20630;BME280;17386;43.846;25.950;2023-01-29T14:37:24;101872.94;;;3.80;100.00
20630;BME280;17386;43.846;25.950;2023-01-29T14:39:58;101879.97;;;3.81;100.00
20630;BME280;17386;43.846;25.950;2023-01-29T14:42:37;101877.34;;;3.84;100.00
20630;BME280;17386;43.846;25.950;2023-01-29T14:56:11;101868.69;;;3.94;100.00
20630;BME280;17386;43.846;25.950;2023-01-29T15:01:37;101868.78;;;4.03;100.00
20630;BME280;17386;43.846;25.950;2023-01-29T15:07:02;101860.00;;;4.04;100.00
20630;BME280;17386;43.846;25.950;2023-01-29T15:09:47;101868.50;;;3.76;100.00
20630;BME280;17386;43.846;25.950;2023-01-29T15:12:46;101869.44;;;3.78;100.00
20630;BME280;17386;43.846;25.950;2023-01-29T15:15:51;101874.78;;;3.87;100.00
20630;BME280;17386;43.846;25.950;2023-01-29T15:18:40;101872.16;;;3.90;100.00
20630;BME280;17386;43.846;25.950;2023-01-29T15:21:13;101874.81;;;3.92;100.00
20630;BME280;17386;43.846;25.950;2023-01-29T15:23:42;101868.69;;;3.93;100.00
20630;BME280;17386;43.846;25.950;2023-01-29T15:26:12;101869.59;;;3.98;100.00